Time;durP1;ratioP1;P1;durP2;ratioP2;P2;SDS_P1;SDS_P2;PMS_P1;PMS_P2;Temp;Humidity;BMP_temperature;BMP_pressure;BME280_temperature;BME280_humidity;BME280_pressure;Samples;Min_cycle;Max_cycle;Signal;HPM_P1;HPM_P2
2021/05/26 00:00:20;;;;;;;2.28;1.20;;;;;;;;;;4983231;28;20484;-64
2021/05/26 00:02:46;;;;;;;2.08;1.00;;;;;;;;;;4986507;28;20034;-64
2021/05/26 00:05:11;;;;;;;2.30;0.80;;;;;;;;;;4988635;28;20413;-64
2021/05/26 00:07:37;;;;;;;3.85;0.90;;;;;;;;;;4985588;28;20048;-64
2021/05/26 00:10:05;;;;;;;2.17;0.70;;;;;;;;;;4984356;28;20041;-64
2021/05/26 00:12:30;;;;;;;2.35;1.00;;;;;;;;;;4985488;28;20496;-64
2021/05/26 00:14:55;;;;;;;2.13;0.80;;;;;;;;;;4986980;28;20045;-64
2021/05/26 00:17:21;;;;;;;1.65;0.70;;;;;;;;;;4988022;28;20045;-64
2021/05/26 00:19:47;;;;;;;2.17;0.60;;;;;;;;;;4985855;28;20113;-64
2021/05/26 00:22:12;;;;;;;0.60;0.50;;;;;;;;;;4988253;28;20034;-64
2021/05/26 00:24:38;;;;;;;3.63;0.70;;;;;;;;;;4987886;28;20512;-64
2021/05/26 00:27:04;;;;;;;0.90;0.45;;;;;;;;;;4984930;28;20037;-64
2021/05/26 00:29:30;;;;;;;2.17;0.60;;;;;;;;;;4987939;28;20030;-65
2021/05/26 00:31:55;;;;;;;2.33;0.80;;;;;;;;;;5017805;28;20225;-64
2021/05/26 00:34:21;;;;;;;2.88;0.70;;;;;;;;;;4985264;28;20033;-64
2021/05/26 00:36:47;;;;;;;2.72;0.77;;;;;;;;;;4984258;28;20027;-64
2021/05/26 00:39:12;;;;;;;0.63;0.40;;;;;;;;;;5016484;28;20024;-64
2021/05/26 00:41:38;;;;;;;1.70;0.70;;;;;;;;;;4986739;28;20033;-64
2021/05/26 00:44:04;;;;;;;1.80;0.57;;;;;;;;;;4989716;28;20233;-64
2021/05/26 00:46:29;;;;;;;3.15;0.98;;;;;;;;;;4985381;28;20413;-64
2021/05/26 00:48:55;;;;;;;2.10;0.60;;;;;;;;;;5017042;28;20041;-64
2021/05/26 00:51:20;;;;;;;2.35;0.80;;;;;;;;;;4985222;28;20116;-64
2021/05/26 00:53:48;;;;;;;0.85;0.50;;;;;;;;;;4988174;28;20092;-64
2021/05/26 00:56:14;;;;;;;3.70;0.95;;;;;;;;;;4986298;28;20398;-64
2021/05/26 00:58:43;;;;;;;2.00;0.65;;;;;;;;;;5017413;28;20033;-64
2021/05/26 01:01:08;;;;;;;2.38;0.60;;;;;;;;;;4985641;28;20042;-64
2021/05/26 01:03:34;;;;;;;3.88;0.57;;;;;;;;;;5019401;28;20535;-64
2021/05/26 01:05:59;;;;;;;1.60;0.60;;;;;;;;;;4984582;28;20495;-64
2021/05/26 01:08:25;;;;;;;2.17;0.60;;;;;;;;;;4983726;28;20026;-64
2021/05/26 01:10:50;;;;;;;2.08;0.60;;;;;;;;;;4983826;28;20039;-64
2021/05/26 01:13:17;;;;;;;3.83;0.60;;;;;;;;;;4986205;28;20507;-64
2021/05/26 01:15:43;;;;;;;2.28;0.50;;;;;;;;;;5017638;28;20030;-64
2021/05/26 01:18:25;;;;;;;2.72;0.80;;;;;;;;;;4983696;28;20018;-65
2021/05/26 01:20:53;;;;;;;2.47;0.77;;;;;;;;;;4984083;28;20056;-66
2021/05/26 01:23:19;;;;;;;3.00;0.88;;;;;;;;;;4984022;28;20121;-66
2021/05/26 01:25:47;;;;;;;3.95;0.73;;;;;;;;;;4984261;28;20268;-66
2021/05/26 01:28:13;;;;;;;1.15;0.57;;;;;;;;;;5016193;28;20361;-65
2021/05/26 01:30:39;;;;;;;1.70;0.52;;;;;;;;;;4984394;28;20100;-66
2021/05/26 01:33:08;;;;;;;1.52;0.60;;;;;;;;;;4988014;28;20085;-66
2021/05/26 01:35:33;;;;;;;4.32;0.80;;;;;;;;;;5017665;28;20034;-65
2021/05/26 01:37:59;;;;;;;3.20;0.68;;;;;;;;;;4983150;28;20026;-65
2021/05/26 01:40:25;;;;;;;1.35;0.60;;;;;;;;;;4984527;28;20041;-65
2021/05/26 01:42:50;;;;;;;1.05;0.55;;;;;;;;;;4985317;28;20022;-65
2021/05/26 01:45:18;;;;;;;3.10;0.88;;;;;;;;;;4983854;28;20396;-65
2021/05/26 01:47:48;;;;;;;1.55;0.60;;;;;;;;;;4983419;28;20031;-65
2021/05/26 01:50:20;;;;;;;;;;;;;;;;;;5002515;28;20097;-64
2021/05/26 01:53:08;;;;;;;1.58;0.73;;;;;;;;;;4985982;28;20336;-64
2021/05/26 01:55:38;;;;;;;2.60;0.73;;;;;;;;;;4985719;28;20442;-65
2021/05/26 01:58:04;;;;;;;2.25;0.77;;;;;;;;;;4988629;28;20054;-64
2021/05/26 02:00:31;;;;;;;1.27;0.70;;;;;;;;;;4983777;28;20069;-64
2021/05/26 02:02:59;;;;;;;2.85;0.70;;;;;;;;;;4985405;28;20057;-65
2021/05/26 02:05:24;;;;;;;1.70;0.80;;;;;;;;;;4985435;28;20069;-64
2021/05/26 02:07:52;;;;;;;1.88;0.88;;;;;;;;;;5015574;28;20046;-64
2021/05/26 02:12:20;;;;;;;2.58;0.70;;;;;;;;;;4985467;28;20026;-64
2021/05/26 02:13:04;;;;;;;1.63;0.90;;;;;;;;;;4984736;28;20041;-64
2021/05/26 02:15:30;;;;;;;3.15;0.68;;;;;;;;;;4983062;28;20041;-64
2021/05/26 02:17:56;;;;;;;3.03;0.75;;;;;;;;;;4986122;28;20089;-64
2021/05/26 02:20:22;;;;;;;3.58;0.88;;;;;;;;;;4984595;28;20030;-64
2021/05/26 02:22:48;;;;;;;3.60;0.90;;;;;;;;;;5014716;28;20046;-64
2021/05/26 02:25:13;;;;;;;2.83;0.95;;;;;;;;;;5000883;28;20066;-64
2021/05/26 02:27:39;;;;;;;2.03;0.88;;;;;;;;;;4986068;28;20023;-64
2021/05/26 02:30:05;;;;;;;1.45;0.90;;;;;;;;;;4970895;28;20069;-64
2021/05/26 02:32:31;;;;;;;2.80;0.80;;;;;;;;;;4985324;28;20049;-64
2021/05/26 02:34:59;;;;;;;2.65;0.75;;;;;;;;;;4971488;28;20034;-63
2021/05/26 02:37:24;;;;;;;2.70;0.80;;;;;;;;;;4984908;28;20040;-64
2021/05/26 02:39:50;;;;;;;2.22;0.73;;;;;;;;;;4985431;28;20018;-64
2021/05/26 02:42:15;;;;;;;1.88;0.70;;;;;;;;;;4983497;28;20027;-64
2021/05/26 02:44:41;;;;;;;1.38;0.68;;;;;;;;;;5016890;28;20472;-64
2021/05/26 02:47:06;;;;;;;2.67;0.70;;;;;;;;;;4982472;28;20025;-64
2021/05/26 02:49:32;;;;;;;2.08;0.80;;;;;;;;;;4984016;28;20030;-64
2021/05/26 02:51:57;;;;;;;3.03;0.80;;;;;;;;;;4983780;28;20046;-64
2021/05/26 02:54:23;;;;;;;2.80;1.00;;;;;;;;;;4984691;28;20026;-64
2021/05/26 02:56:49;;;;;;;2.42;0.77;;;;;;;;;;4985290;28;20443;-64
2021/05/26 02:59:14;;;;;;;2.80;0.75;;;;;;;;;;5001164;28;20033;-64
2021/05/26 03:01:40;;;;;;;2.00;0.90;;;;;;;;;;4987552;28;20037;-64
2021/05/26 03:04:05;;;;;;;1.70;0.85;;;;;;;;;;4989789;28;20034;-64
2021/05/26 03:06:31;;;;;;;2.75;1.00;;;;;;;;;;5003703;28;20100;-64
2021/05/26 03:08:57;;;;;;;1.98;0.70;;;;;;;;;;4986268;28;20408;-64
2021/05/26 03:11:23;;;;;;;1.70;0.77;;;;;;;;;;5018297;28;20038;-64
2021/05/26 03:13:49;;;;;;;1.15;0.80;;;;;;;;;;4983986;28;20038;-64
2021/05/26 03:16:14;;;;;;;1.35;0.70;;;;;;;;;;5016123;28;20091;-64
2021/05/26 03:18:41;;;;;;;2.25;0.90;;;;;;;;;;4988541;28;20026;-64
2021/05/26 03:21:07;;;;;;;1.33;0.70;;;;;;;;;;4988207;28;20026;-65
2021/05/26 03:23:32;;;;;;;3.88;0.77;;;;;;;;;;4985591;28;20508;-65
2021/05/26 03:25:58;;;;;;;1.73;0.70;;;;;;;;;;4987663;28;20030;-64
2021/05/26 03:28:24;;;;;;;4.40;0.90;;;;;;;;;;4987469;28;20428;-64
2021/05/26 03:30:50;;;;;;;2.67;0.70;;;;;;;;;;4989533;28;20037;-65
2021/05/26 03:33:16;;;;;;;1.77;0.73;;;;;;;;;;4987148;28;20073;-65
2021/05/26 03:35:43;;;;;;;2.65;0.98;;;;;;;;;;4986484;28;20038;-65
2021/05/26 03:38:09;;;;;;;1.95;0.75;;;;;;;;;;4983548;28;20022;-65
2021/05/26 03:40:36;;;;;;;3.13;0.95;;;;;;;;;;4988214;28;20270;-65
2021/05/26 03:43:02;;;;;;;2.20;0.80;;;;;;;;;;4988253;28;20029;-65
2021/05/26 03:45:28;;;;;;;2.75;0.95;;;;;;;;;;4986805;28;20041;-65
2021/05/26 03:47:55;;;;;;;4.32;0.70;;;;;;;;;;5002027;28;20106;-65
2021/05/26 03:50:21;;;;;;;1.42;0.95;;;;;;;;;;5019060;28;20030;-65
2021/05/26 03:52:47;;;;;;;5.03;1.50;;;;;;;;;;4987246;28;20033;-65
2021/05/26 03:55:15;;;;;;;2.28;1.05;;;;;;;;;;4987813;28;20096;-65
2021/05/26 03:57:41;;;;;;;0.75;0.70;;;;;;;;;;5001613;28;20126;-65
2021/05/26 04:00:09;;;;;;;3.10;1.20;;;;;;;;;;4986891;28;20109;-64
2021/05/26 04:02:35;;;;;;;1.42;0.70;;;;;;;;;;4986973;28;20045;-65
2021/05/26 04:05:01;;;;;;;4.25;1.42;;;;;;;;;;4987330;28;20031;-64
2021/05/26 04:07:26;;;;;;;3.80;1.13;;;;;;;;;;4987736;28;20389;-64
2021/05/26 04:09:52;;;;;;;1.23;0.90;;;;;;;;;;5015164;28;20198;-64
2021/05/26 04:12:18;;;;;;;2.97;0.77;;;;;;;;;;4986052;28;20030;-64
2021/05/26 04:14:46;;;;;;;4.20;0.98;;;;;;;;;;4984767;28;20441;-64
2021/05/26 04:17:12;;;;;;;2.50;0.90;;;;;;;;;;4982109;28;20823;-65
2021/05/26 04:19:37;;;;;;;1.73;0.98;;;;;;;;;;4988475;28;20038;-65
2021/05/26 04:22:03;;;;;;;3.30;0.98;;;;;;;;;;4987403;28;20018;-64
2021/05/26 04:24:29;;;;;;;2.83;0.93;;;;;;;;;;4986484;28;20045;-65
2021/05/26 04:26:54;;;;;;;5.57;1.20;;;;;;;;;;4986832;28;20022;-65
2021/05/26 04:29:20;;;;;;;2.55;1.00;;;;;;;;;;4986565;28;20485;-65
2021/05/26 04:31:46;;;;;;;3.20;0.90;;;;;;;;;;4970344;28;20054;-66
2021/05/26 04:34:13;;;;;;;2.45;0.80;;;;;;;;;;4986726;28;20026;-66
2021/05/26 04:36:39;;;;;;;2.92;0.90;;;;;;;;;;4985256;28;20034;-65
2021/05/26 04:39:05;;;;;;;3.40;1.85;;;;;;;;;;4987487;28;20102;-65
2021/05/26 04:41:30;;;;;;;3.33;0.88;;;;;;;;;;4985447;28;20060;-65
2021/05/26 04:43:56;;;;;;;2.35;0.70;;;;;;;;;;4988393;28;20662;-65
2021/05/26 04:46:21;;;;;;;2.60;0.68;;;;;;;;;;4985574;28;20022;-65
2021/05/26 04:48:47;;;;;;;6.47;3.10;;;;;;;;;;4985602;28;20100;-65
2021/05/26 04:51:13;;;;;;;2.30;1.10;;;;;;;;;;5017216;28;20122;-67
2021/05/26 04:53:38;;;;;;;3.58;1.13;;;;;;;;;;4985899;28;20022;-67
2021/05/26 04:56:04;;;;;;;1.20;0.63;;;;;;;;;;4984247;28;20441;-67
2021/05/26 04:58:30;;;;;;;1.63;1.38;;;;;;;;;;4973067;28;20125;-67
2021/05/26 05:00:56;;;;;;;2.13;0.80;;;;;;;;;;4985198;28;20308;-68
2021/05/26 05:03:21;;;;;;;3.03;1.00;;;;;;;;;;4986189;28;20034;-68
2021/05/26 05:05:47;;;;;;;5.85;0.98;;;;;;;;;;4989722;28;20065;-68
2021/05/26 05:08:16;;;;;;;1.70;0.70;;;;;;;;;;4984250;28;20590;-67
2021/05/26 05:10:41;;;;;;;1.17;0.70;;;;;;;;;;4985032;28;20695;-68
2021/05/26 05:13:07;;;;;;;1.00;0.50;;;;;;;;;;4988798;28;20445;-68
2021/05/26 05:15:33;;;;;;;1.35;0.60;;;;;;;;;;4983724;28;20313;-68
2021/05/26 05:17:58;;;;;;;1.10;0.60;;;;;;;;;;4986194;28;20461;-67
2021/05/26 05:20:27;;;;;;;2.88;1.88;;;;;;;;;;4987087;28;20061;-67
2021/05/26 05:22:54;;;;;;;2.35;1.02;;;;;;;;;;4986293;28;20175;-68
2021/05/26 05:25:21;;;;;;;2.05;0.90;;;;;;;;;;4984162;28;20026;-68
2021/05/26 05:27:47;;;;;;;2.20;0.80;;;;;;;;;;4983601;28;20027;-66
2021/05/26 05:30:14;;;;;;;2.35;0.60;;;;;;;;;;4984993;28;20027;-67
2021/05/26 05:32:40;;;;;;;2.10;0.80;;;;;;;;;;4985196;28;20045;-68
2021/05/26 05:35:06;;;;;;;1.73;0.90;;;;;;;;;;4986609;28;20045;-67
2021/05/26 05:37:32;;;;;;;2.42;1.25;;;;;;;;;;4985289;28;20068;-67
2021/05/26 05:39:57;;;;;;;1.75;0.70;;;;;;;;;;4984239;28;20058;-67
2021/05/26 05:42:23;;;;;;;7.25;3.17;;;;;;;;;;4985553;28;20026;-68
2021/05/26 05:44:49;;;;;;;6.10;3.03;;;;;;;;;;4987926;28;20058;-68
2021/05/26 05:47:15;;;;;;;2.38;0.70;;;;;;;;;;4985748;28;20030;-68
2021/05/26 05:49:41;;;;;;;3.40;0.70;;;;;;;;;;4999627;28;20489;-67
2021/05/26 05:52:11;;;;;;;3.55;1.00;;;;;;;;;;4982805;28;20039;-68
2021/05/26 05:54:37;;;;;;;1.02;0.40;;;;;;;;;;4984269;28;20030;-67
2021/05/26 05:57:04;;;;;;;1.38;0.52;;;;;;;;;;4983225;28;20266;-67
2021/05/26 05:59:31;;;;;;;1.63;0.95;;;;;;;;;;4985578;28;20048;-67
2021/05/26 06:01:57;;;;;;;1.70;0.75;;;;;;;;;;4979389;28;20038;-67
2021/05/26 06:04:23;;;;;;;2.13;0.70;;;;;;;;;;4984764;28;20519;-67
2021/05/26 06:06:49;;;;;;;1.10;0.70;;;;;;;;;;5015877;28;20110;-66
2021/05/26 06:09:15;;;;;;;0.73;0.55;;;;;;;;;;4984538;28;20125;-67
2021/05/26 06:11:42;;;;;;;1.55;0.73;;;;;;;;;;4978292;28;20104;-69
2021/05/26 06:14:08;;;;;;;1.65;0.73;;;;;;;;;;4978135;28;20090;-68
2021/05/26 06:16:35;;;;;;;2.35;0.88;;;;;;;;;;5013891;28;20608;-68
2021/05/26 06:19:02;;;;;;;1.17;0.68;;;;;;;;;;4999730;28;20037;-68
2021/05/26 06:21:28;;;;;;;1.65;0.80;;;;;;;;;;4968141;28;20740;-67
2021/05/26 06:23:53;;;;;;;1.80;0.80;;;;;;;;;;5017675;28;20056;-68
2021/05/26 06:26:19;;;;;;;4.57;0.95;;;;;;;;;;4999068;28;20327;-68
2021/05/26 06:28:45;;;;;;;1.70;0.65;;;;;;;;;;4985477;28;20022;-68
2021/05/26 06:31:15;;;;;;;3.33;1.00;;;;;;;;;;4978178;28;20045;-68
2021/05/26 06:33:44;;;;;;;1.83;0.88;;;;;;;;;;4983503;28;20482;-68
2021/05/26 06:36:10;;;;;;;1.85;0.90;;;;;;;;;;4983392;28;20122;-69
2021/05/26 06:38:38;;;;;;;1.60;0.85;;;;;;;;;;4986279;28;20327;-67
2021/05/26 06:41:04;;;;;;;1.25;0.80;;;;;;;;;;4989249;28;20037;-68
2021/05/26 06:43:33;;;;;;;2.30;0.82;;;;;;;;;;4985968;28;20030;-69
2021/05/26 06:46:01;;;;;;;3.88;1.00;;;;;;;;;;5018717;28;20113;-68
2021/05/26 06:48:27;;;;;;;2.85;1.23;;;;;;;;;;4961775;28;20042;-68
2021/05/26 06:50:53;;;;;;;2.35;0.90;;;;;;;;;;5016975;28;20129;-68
2021/05/26 06:53:20;;;;;;;3.05;1.05;;;;;;;;;;4989814;28;20129;-68
2021/05/26 06:55:46;;;;;;;3.13;0.98;;;;;;;;;;5002065;28;20034;-68
2021/05/26 06:58:12;;;;;;;2.35;1.10;;;;;;;;;;4985394;28;20038;-68
2021/05/26 07:00:38;;;;;;;5.30;1.05;;;;;;;;;;4987361;28;20054;-68
2021/05/26 07:03:05;;;;;;;1.65;1.00;;;;;;;;;;4985174;28;20056;-67
2021/05/26 07:05:32;;;;;;;2.80;1.13;;;;;;;;;;4991399;28;20042;-67
2021/05/26 07:07:58;;;;;;;2.97;0.95;;;;;;;;;;5002086;28;20034;-68
2021/05/26 07:10:24;;;;;;;3.78;0.90;;;;;;;;;;4990612;28;20038;-68
2021/05/26 07:12:54;;;;;;;2.40;0.70;;;;;;;;;;4983992;28;20069;-68
2021/05/26 07:15:23;;;;;;;2.72;1.13;;;;;;;;;;4986586;28;20038;-67
2021/05/26 07:17:50;;;;;;;2.42;1.15;;;;;;;;;;5003144;28;20081;-68
2021/05/26 07:20:16;;;;;;;2.22;0.90;;;;;;;;;;4985154;28;20038;-68
2021/05/26 07:22:43;;;;;;;2.42;0.98;;;;;;;;;;5002015;28;20027;-68
2021/05/26 07:25:09;;;;;;;3.75;1.15;;;;;;;;;;4985460;28;20034;-66
2021/05/26 07:27:40;;;;;;;10.02;5.20;;;;;;;;;;4986930;28;20026;-68
2021/05/26 07:31:07;;;;;;;6.20;2.50;;;;;;;;;;5019166;28;20088;-66
2021/05/26 07:33:37;;;;;;;4.82;2.78;;;;;;;;;;4986417;28;20061;-67
2021/05/26 07:36:04;;;;;;;4.20;2.42;;;;;;;;;;5002688;28;21051;-60
2021/05/26 07:38:33;;;;;;;6.25;1.52;;;;;;;;;;4986577;28;20038;-61
2021/05/26 07:40:59;;;;;;;5.25;1.67;;;;;;;;;;4986913;28;20536;-61
2021/05/26 07:43:25;;;;;;;3.67;1.40;;;;;;;;;;4985360;28;20129;-61
2021/05/26 07:45:50;;;;;;;3.28;1.55;;;;;;;;;;4984009;28;20034;-61
2021/05/26 07:48:16;;;;;;;5.05;2.13;;;;;;;;;;4982369;28;20581;-60
2021/05/26 07:50:43;;;;;;;7.45;4.28;;;;;;;;;;5002572;28;20034;-61
2021/05/26 07:53:09;;;;;;;8.50;5.28;;;;;;;;;;4984979;28;20022;-58
2021/05/26 07:55:36;;;;;;;4.57;2.22;;;;;;;;;;4987076;28;20583;-61
2021/05/26 07:58:02;;;;;;;4.28;1.48;;;;;;;;;;4980293;28;20582;-58
2021/05/26 08:00:28;;;;;;;2.83;1.40;;;;;;;;;;5003293;28;20046;-61
2021/05/26 08:02:53;;;;;;;4.72;1.60;;;;;;;;;;4986413;28;20030;-60
2021/05/26 08:05:21;;;;;;;3.30;2.15;;;;;;;;;;5014711;28;20034;-61
2021/05/26 08:07:47;;;;;;;4.75;1.50;;;;;;;;;;5016298;28;20037;-61
2021/05/26 08:10:13;;;;;;;4.57;1.73;;;;;;;;;;5002742;28;20493;-60
2021/05/26 08:12:39;;;;;;;4.97;2.35;;;;;;;;;;5017572;28;20199;-61
2021/05/26 08:15:07;;;;;;;4.65;1.30;;;;;;;;;;4988434;28;20828;-61
2021/05/26 08:17:32;;;;;;;5.57;2.00;;;;;;;;;;5018175;28;20037;-60
2021/05/26 08:20:02;;;;;;;4.38;1.63;;;;;;;;;;4988281;28;20038;-61
2021/05/26 08:22:29;;;;;;;5.15;1.58;;;;;;;;;;4987127;28;20033;-61
2021/05/26 08:24:54;;;;;;;6.25;1.70;;;;;;;;;;4981704;28;20561;-61
2021/05/26 08:27:20;;;;;;;5.47;2.20;;;;;;;;;;5013698;28;20104;-62
2021/05/26 08:29:46;;;;;;;7.50;2.22;;;;;;;;;;5001941;28;20030;-61
2021/05/26 08:32:12;;;;;;;5.35;1.67;;;;;;;;;;5002906;28;20496;-61
2021/05/26 08:34:37;;;;;;;5.78;2.40;;;;;;;;;;4985877;28;20192;-61
2021/05/26 08:37:03;;;;;;;6.63;1.77;;;;;;;;;;4985829;28;20021;-61
2021/05/26 08:39:33;;;;;;;5.72;2.03;;;;;;;;;;4987231;28;20026;-61
2021/05/26 08:42:03;;;;;;;4.60;1.70;;;;;;;;;;5002071;28;20102;-61
2021/05/26 08:44:30;;;;;;;4.93;1.80;;;;;;;;;;4984126;28;20105;-62
2021/05/26 08:46:56;;;;;;;7.15;1.60;;;;;;;;;;4983707;28;20096;-61
2021/05/26 08:49:22;;;;;;;7.75;2.22;;;;;;;;;;4985794;28;20443;-61
2021/05/26 08:51:48;;;;;;;6.13;1.95;;;;;;;;;;4982429;28;20042;-61
2021/05/26 08:54:16;;;;;;;4.25;2.00;;;;;;;;;;4985971;28;20030;-62
2021/05/26 08:56:44;;;;;;;5.82;2.20;;;;;;;;;;4981809;28;20030;-62
2021/05/26 08:59:14;;;;;;;7.00;2.30;;;;;;;;;;4980179;28;20030;-61
2021/05/26 09:01:48;;;;;;;11.68;2.85;;;;;;;;;;4981590;28;20032;-62
2021/05/26 09:04:28;;;;;;;6.28;2.53;;;;;;;;;;4987002;28;20536;-61
2021/05/26 09:07:18;;;;;;;8.02;2.40;;;;;;;;;;5000064;28;20571;-61
2021/05/26 09:09:50;;;;;;;;;;;;;;;;;;4986814;28;20396;-61
2021/05/26 09:12:24;;;;;;;7.32;1.80;;;;;;;;;;4985916;28;19936;-61
2021/05/26 09:14:49;;;;;;;5.80;2.10;;;;;;;;;;4984955;28;20034;-61
2021/05/26 09:17:15;;;;;;;8.48;2.40;;;;;;;;;;4984317;28;20056;-62
2021/05/26 09:19:41;;;;;;;6.20;1.92;;;;;;;;;;4986028;28;20022;-61
2021/05/26 09:22:14;;;;;;;5.30;2.80;;;;;;;;;;5018973;28;20053;-61
2021/05/26 09:24:47;;;;;;;5.88;1.63;;;;;;;;;;4986929;28;20033;-61
2021/05/26 09:27:13;;;;;;;6.60;2.15;;;;;;;;;;4984140;28;20084;-62
2021/05/26 09:29:44;;;;;;;10.75;2.05;;;;;;;;;;4983835;28;20026;-62
2021/05/26 09:32:18;;;;;;;5.32;2.25;;;;;;;;;;4987331;28;20034;-61
2021/05/26 09:34:54;;;;;;;4.80;1.85;;;;;;;;;;4985239;28;20037;-61
2021/05/26 09:37:30;;;;;;;6.22;1.70;;;;;;;;;;4984841;28;20150;-61
2021/05/26 09:40:00;;;;;;;5.55;2.08;;;;;;;;;;5001688;28;20057;-61
2021/05/26 09:42:33;;;;;;;5.00;1.80;;;;;;;;;;5000577;28;20109;-61
2021/05/26 09:45:09;;;;;;;4.00;1.63;;;;;;;;;;4983010;28;20121;-61
2021/05/26 09:47:36;;;;;;;5.50;1.92;;;;;;;;;;4984232;28;20366;-62
2021/05/26 09:50:14;;;;;;;5.43;1.75;;;;;;;;;;4980131;28;20034;-62
2021/05/26 09:52:55;;;;;;;4.25;1.42;;;;;;;;;;4999765;28;20026;-62
2021/05/26 09:55:36;;;;;;;6.60;1.73;;;;;;;;;;4983033;28;20026;-61
2021/05/26 09:58:03;;;;;;;5.43;1.60;;;;;;;;;;4983058;28;20026;-61
2021/05/26 10:00:30;;;;;;;5.75;1.10;;;;;;;;;;4986311;28;20146;-62
2021/05/26 10:02:56;;;;;;;3.65;2.20;;;;;;;;;;4980727;28;20583;-61
2021/05/26 10:05:22;;;;;;;3.30;1.67;;;;;;;;;;5016349;28;20030;-62
2021/05/26 10:07:58;;;;;;;4.03;2.05;;;;;;;;;;4982585;28;20037;-62
2021/05/26 10:10:29;;;;;;;2.47;1.30;;;;;;;;;;5020158;28;20038;-61
2021/05/26 10:13:04;;;;;;;1.77;1.25;;;;;;;;;;4987762;28;20609;-62
2021/05/26 10:15:34;;;;;;;4.28;1.20;;;;;;;;;;5020365;28;20131;-61
2021/05/26 10:18:01;;;;;;;4.65;1.30;;;;;;;;;;4987632;28;20081;-61
2021/05/26 10:20:30;;;;;;;1.77;1.00;;;;;;;;;;4990843;28;20393;-61
2021/05/26 10:22:58;;;;;;;3.13;1.23;;;;;;;;;;4987623;28;20061;-61
2021/05/26 10:25:27;;;;;;;2.97;1.13;;;;;;;;;;4990027;28;20095;-61
2021/05/26 10:27:57;;;;;;;4.90;1.40;;;;;;;;;;4987366;28;20029;-65
2021/05/26 10:30:28;;;;;;;4.60;1.75;;;;;;;;;;4986469;28;20122;-60
2021/05/26 10:32:53;;;;;;;7.30;2.67;;;;;;;;;;4990678;28;20030;-61
2021/05/26 10:35:24;;;;;;;5.10;1.70;;;;;;;;;;4989834;28;20026;-60
2021/05/26 10:38:06;;;;;;;7.25;3.03;;;;;;;;;;4985538;28;20023;-60
2021/05/26 10:40:36;;;;;;;3.92;1.27;;;;;;;;;;4985150;28;20054;-60
2021/05/26 10:43:14;;;;;;;3.55;1.70;;;;;;;;;;4987856;28;20053;-60
2021/05/26 10:45:40;;;;;;;5.13;2.60;;;;;;;;;;4984665;28;20060;-61
2021/05/26 10:48:06;;;;;;;5.57;2.38;;;;;;;;;;5000938;28;20396;-60
2021/05/26 10:50:44;;;;;;;7.97;3.63;;;;;;;;;;4986215;28;20472;-60
2021/05/26 10:53:10;;;;;;;7.32;2.88;;;;;;;;;;5003863;28;20165;-60
2021/05/26 10:55:36;;;;;;;5.13;1.92;;;;;;;;;;4984043;28;20184;-61
2021/05/26 10:58:10;;;;;;;2.75;1.52;;;;;;;;;;4986167;28;20527;-61
2021/05/26 11:00:36;;;;;;;2.60;1.90;;;;;;;;;;4983025;28;20057;-61
2021/05/26 11:03:27;;;;;;;2.72;2.03;;;;;;;;;;5019192;28;20034;-61
2021/05/26 11:05:53;;;;;;;2.35;1.70;;;;;;;;;;4999844;28;20397;-61
2021/05/26 11:08:45;;;;;;;4.30;1.90;;;;;;;;;;4985173;28;20497;-60
2021/05/26 11:11:33;;;;;;;2.35;1.40;;;;;;;;;;4999456;28;20037;-61
2021/05/26 11:14:11;;;;;;;2.90;1.90;;;;;;;;;;4987096;28;20053;-61
2021/05/26 11:16:38;;;;;;;2.10;1.27;;;;;;;;;;4987723;28;20117;-62
2021/05/26 11:19:14;;;;;;;3.30;1.20;;;;;;;;;;4987548;28;20037;-62
2021/05/26 11:21:41;;;;;;;3.22;1.38;;;;;;;;;;4981514;28;20022;-62
2021/05/26 11:24:08;;;;;;;1.85;1.40;;;;;;;;;;4989105;28;20022;-61
2021/05/26 11:26:35;;;;;;;3.25;1.73;;;;;;;;;;4979340;28;20027;-60
2021/05/26 11:29:05;;;;;;;1.25;1.15;;;;;;;;;;4986350;28;20273;-61
2021/05/26 11:31:30;;;;;;;2.03;0.77;;;;;;;;;;4970627;28;20061;-61
2021/05/26 11:33:57;;;;;;;1.98;1.00;;;;;;;;;;4987194;28;20608;-61
2021/05/26 11:36:42;;;;;;;2.97;1.55;;;;;;;;;;4985621;28;20038;-61
2021/05/26 11:39:29;;;;;;;2.80;1.10;;;;;;;;;;4985529;28;20041;-61
2021/05/26 11:42:07;;;;;;;3.67;1.83;;;;;;;;;;5000436;28;20485;-61
2021/05/26 11:44:52;;;;;;;3.13;1.15;;;;;;;;;;4986381;28;20025;-61
2021/05/26 11:47:42;;;;;;;1.65;0.90;;;;;;;;;;4969590;28;20022;-60
2021/05/26 11:50:17;;;;;;;1.67;1.02;;;;;;;;;;4983423;28;20551;-60
2021/05/26 11:52:52;;;;;;;2.53;0.70;;;;;;;;;;4983375;28;20057;-60
2021/05/26 11:55:23;;;;;;;1.48;0.88;;;;;;;;;;4984613;28;20081;-59
2021/05/26 11:57:51;;;;;;;1.77;1.17;;;;;;;;;;4985815;28;20093;-59
2021/05/26 12:00:26;;;;;;;0.90;0.68;;;;;;;;;;4986872;28;20074;-59
2021/05/26 12:03:09;;;;;;;1.42;1.20;;;;;;;;;;4969390;28;20034;-60
2021/05/26 12:05:53;;;;;;;2.75;1.33;;;;;;;;;;4985810;28;20120;-60
2021/05/26 12:08:24;;;;;;;5.50;3.88;;;;;;;;;;4984645;28;20571;-59
2021/05/26 12:10:55;;;;;;;2.58;1.30;;;;;;;;;;4985079;28;20121;-60
2021/05/26 12:13:26;;;;;;;2.55;1.63;;;;;;;;;;4987751;28;20038;-59
2021/05/26 12:15:52;;;;;;;3.45;1.30;;;;;;;;;;4983180;28;20038;-59
2021/05/26 12:18:19;;;;;;;1.83;0.70;;;;;;;;;;4984685;28;20038;-60
2021/05/26 12:20:47;;;;;;;2.25;0.90;;;;;;;;;;4985637;28;20539;-60
2021/05/26 12:23:13;;;;;;;1.63;0.70;;;;;;;;;;4986446;28;20034;-59
2021/05/26 12:25:47;;;;;;;2.03;0.65;;;;;;;;;;4986085;28;20030;-59
2021/05/26 12:28:14;;;;;;;1.90;0.93;;;;;;;;;;4980828;28;20081;-58
2021/05/26 12:30:40;;;;;;;1.58;0.70;;;;;;;;;;4985747;28;20069;-58
2021/05/26 12:33:17;;;;;;;1.88;0.77;;;;;;;;;;4983103;28;20053;-59
2021/05/26 12:35:43;;;;;;;1.27;0.80;;;;;;;;;;5016323;28;20080;-59
2021/05/26 12:38:20;;;;;;;1.30;0.70;;;;;;;;;;4987656;28;20342;-59
2021/05/26 12:40:49;;;;;;;1.15;0.85;;;;;;;;;;4986654;28;20025;-59
2021/05/26 12:43:31;;;;;;;3.50;1.00;;;;;;;;;;4983081;28;20073;-59
2021/05/26 12:45:57;;;;;;;1.10;1.00;;;;;;;;;;4982892;28;20054;-58
2021/05/26 12:48:29;;;;;;;0.52;0.40;;;;;;;;;;4987039;28;20528;-58
2021/05/26 12:50:59;;;;;;;0.93;0.52;;;;;;;;;;4986868;28;20120;-59
2021/05/26 12:53:33;;;;;;;1.75;0.50;;;;;;;;;;4987125;28;20425;-59
2021/05/26 12:56:02;;;;;;;1.92;0.60;;;;;;;;;;5021477;28;20034;-58
2021/05/26 12:58:28;;;;;;;0.60;0.50;;;;;;;;;;4988165;28;20485;-58
2021/05/26 13:01:08;;;;;;;0.98;0.57;;;;;;;;;;4985627;28;20034;-58
2021/05/26 13:03:36;;;;;;;0.60;0.52;;;;;;;;;;4987493;28;20121;-58
2021/05/26 13:06:12;;;;;;;2.33;0.60;;;;;;;;;;5016535;28;20030;-59
2021/05/26 13:08:38;;;;;;;1.10;0.50;;;;;;;;;;4984352;28;20116;-58
2021/05/26 13:11:06;;;;;;;0.80;0.50;;;;;;;;;;4969164;28;20123;-58
2021/05/26 13:13:34;;;;;;;1.83;0.63;;;;;;;;;;4986923;28;20045;-58
2021/05/26 13:16:16;;;;;;;0.82;0.60;;;;;;;;;;4983510;28;20030;-58
2021/05/26 13:18:41;;;;;;;1.55;0.70;;;;;;;;;;4977998;28;20041;-58
2021/05/26 13:21:07;;;;;;;2.92;0.70;;;;;;;;;;4979282;28;20042;-58
2021/05/26 13:23:33;;;;;;;1.08;0.50;;;;;;;;;;4998865;28;20043;-58
2021/05/26 13:26:01;;;;;;;1.08;0.70;;;;;;;;;;4982987;28;20157;-58
2021/05/26 13:28:30;;;;;;;1.17;0.60;;;;;;;;;;4979903;28;20026;-58
2021/05/26 13:30:57;;;;;;;2.00;0.77;;;;;;;;;;4983583;28;20037;-58
2021/05/26 13:33:23;;;;;;;0.88;0.50;;;;;;;;;;4983997;28;20087;-58
2021/05/26 13:35:49;;;;;;;1.10;0.80;;;;;;;;;;4968970;28;20283;-58
2021/05/26 13:38:15;;;;;;;1.02;0.57;;;;;;;;;;4984118;28;20524;-58
2021/05/26 13:40:42;;;;;;;1.77;0.60;;;;;;;;;;4985790;28;20492;-58
2021/05/26 13:43:09;;;;;;;1.15;0.73;;;;;;;;;;4997229;28;20505;-58
2021/05/26 13:45:34;;;;;;;1.02;0.60;;;;;;;;;;5013620;28;20049;-58
2021/05/26 13:48:05;;;;;;;2.55;0.90;;;;;;;;;;4985662;28;20031;-58
2021/05/26 13:50:31;;;;;;;1.65;0.70;;;;;;;;;;4980623;28;20041;-58
2021/05/26 13:52:58;;;;;;;1.48;1.10;;;;;;;;;;4985497;28;20053;-58
2021/05/26 13:55:27;;;;;;;2.50;1.00;;;;;;;;;;4986242;28;20057;-58
2021/05/26 13:57:54;;;;;;;1.60;0.90;;;;;;;;;;4983577;28;20559;-58
2021/05/26 14:03:56;;;;;;;2.78;1.55;;;;;;;;;;5017013;28;20087;-59
2021/05/26 14:06:22;;;;;;;2.97;1.40;;;;;;;;;;4982922;28;20452;-59
2021/05/26 14:08:48;;;;;;;3.42;0.80;;;;;;;;;;4982367;28;20038;-58
2021/05/26 14:11:13;;;;;;;2.88;1.05;;;;;;;;;;4985713;28;20025;-59
2021/05/26 14:13:39;;;;;;;1.00;0.80;;;;;;;;;;4984790;28;20220;-59
2021/05/26 14:16:05;;;;;;;0.73;0.52;;;;;;;;;;4980326;28;20733;-59
2021/05/26 14:18:32;;;;;;;1.75;0.70;;;;;;;;;;4997290;28;20054;-59
2021/05/26 14:20:57;;;;;;;2.55;1.00;;;;;;;;;;4983397;28;20030;-58
2021/05/26 14:23:25;;;;;;;2.45;0.90;;;;;;;;;;4983619;28;20404;-59
2021/05/26 14:25:51;;;;;;;2.72;0.80;;;;;;;;;;4993272;28;20078;-59
2021/05/26 14:28:17;;;;;;;2.90;0.80;;;;;;;;;;4999700;28;20022;-55
2021/05/26 14:30:43;;;;;;;1.00;0.70;;;;;;;;;;4984192;28;20026;-58
2021/05/26 14:33:11;;;;;;;1.58;0.60;;;;;;;;;;4982902;28;20071;-57
2021/05/26 14:35:37;;;;;;;2.15;0.70;;;;;;;;;;4979082;28;20029;-59
2021/05/26 14:38:08;;;;;;;1.40;0.70;;;;;;;;;;4978255;28;20394;-59
2021/05/26 14:40:37;;;;;;;1.15;0.73;;;;;;;;;;4984700;28;20062;-59
2021/05/26 14:43:08;;;;;;;0.80;0.80;;;;;;;;;;4985609;28;20028;-59
2021/05/26 14:45:33;;;;;;;1.38;0.75;;;;;;;;;;4983945;28;20041;-59
2021/05/26 14:47:59;;;;;;;1.27;1.13;;;;;;;;;;4984697;28;20377;-59
2021/05/26 14:50:24;;;;;;;1.20;0.80;;;;;;;;;;4981216;28;20038;-59
2021/05/26 14:52:50;;;;;;;0.90;0.70;;;;;;;;;;4999733;28;20022;-59